sensor_id;sensor_type;location;lat;lon;timestamp;P1;durP1;ratioP1;P2;durP2;ratioP2
48891;SDS011;50130;52.150;5.236;2022-07-29T00:00:44;3.3;;;1.4;;
48891;SDS011;50130;52.150;5.236;2022-07-29T00:02:32;4.0;;;1.3;;
48891;SDS011;50130;52.150;5.236;2022-07-29T00:04:19;3.4;;;1.11;;
48891;SDS011;50130;52.150;5.236;2022-07-29T00:06:06;1.9;;;1.3;;
48891;SDS011;50130;52.150;5.236;2022-07-29T00:09:40;4.5;;;1.4;;
48891;SDS011;50130;52.150;5.236;2022-07-29T00:11:27;3.9;;;1.3;;
48891;SDS011;50130;52.150;5.236;2022-07-29T00:13:14;5.0;;;1.3;;
48891;SDS011;50130;52.150;5.236;2022-07-29T00:15:01;2.8;;;1.3;;
48891;SDS011;50130;52.150;5.236;2022-07-29T00:16:48;3.4;;;1.3;;
48891;SDS011;50130;52.150;5.236;2022-07-29T00:18:34;5.2;;;1.3;;
48891;SDS011;50130;52.150;5.236;2022-07-29T00:22:06;3.1;;;1.3;;
48891;SDS011;50130;52.150;5.236;2022-07-29T00:23:54;2.21;;;1.11;;
48891;SDS011;50130;52.150;5.236;2022-07-29T00:25:40;5.4;;;1.4;;
48891;SDS011;50130;52.150;5.236;2022-07-29T00:27:26;2.6;;;1.2;;
48891;SDS011;50130;52.150;5.236;2022-07-29T00:29:12;2.8;;;1.2;;
48891;SDS011;50130;52.150;5.236;2022-07-29T00:30:58;3.4;;;1.5;;
48891;SDS011;50130;52.150;5.236;2022-07-29T00:37:33;4.8;;;1.5;;
48891;SDS011;50130;52.150;5.236;2022-07-29T00:41:05;3.1;;;1.3;;
48891;SDS011;50130;52.150;5.236;2022-07-29T00:42:51;4.3;;;1.11;;
48891;SDS011;50130;52.150;5.236;2022-07-29T00:44:38;3.2;;;1.5;;
48891;SDS011;50130;52.150;5.236;2022-07-29T00:46:25;4.8;;;1.5;;
48891;SDS011;50130;52.150;5.236;2022-07-29T00:48:12;4.2;;;1.3;;
48891;SDS011;50130;52.150;5.236;2022-07-29T00:49:59;4.2;;;1.5;;
48891;SDS011;50130;52.150;5.236;2022-07-29T00:53:35;2.9;;;1.3;;
48891;SDS011;50130;52.150;5.236;2022-07-29T00:55:22;5.3;;;1.3;;
48891;SDS011;50130;52.150;5.236;2022-07-29T00:57:09;3.1;;;1.3;;
48891;SDS011;50130;52.150;5.236;2022-07-29T00:58:57;4.61;;;1.4;;
48891;SDS011;50130;52.150;5.236;2022-07-29T01:00:44;4.7;;;1.3;;
48891;SDS011;50130;52.150;5.236;2022-07-29T01:02:31;3.5;;;1.3;;
48891;SDS011;50130;52.150;5.236;2022-07-29T01:06:05;3.0;;;1.4;;
48891;SDS011;50130;52.150;5.236;2022-07-29T01:07:53;4.7;;;1.6;;
48891;SDS011;50130;52.150;5.236;2022-07-29T01:09:43;4.3;;;1.5;;
48891;SDS011;50130;52.150;5.236;2022-07-29T01:11:32;2.31;;;1.2;;
48891;SDS011;50130;52.150;5.236;2022-07-29T01:13:20;3.6;;;1.2;;
48891;SDS011;50130;52.150;5.236;2022-07-29T01:15:07;4.41;;;1.3;;
48891;SDS011;50130;52.150;5.236;2022-07-29T01:19:00;5.0;;;1.5;;
48891;SDS011;50130;52.150;5.236;2022-07-29T01:21:08;5.6;;;1.3;;
48891;SDS011;50130;52.150;5.236;2022-07-29T01:24:27;4.2;;;1.2;;
48891;SDS011;50130;52.150;5.236;2022-07-29T01:26:49;3.3;;;1.5;;
48891;SDS011;50130;52.150;5.236;2022-07-29T01:28:47;3.2;;;1.3;;
48891;SDS011;50130;52.150;5.236;2022-07-29T01:30:45;3.8;;;1.5;;
48891;SDS011;50130;52.150;5.236;2022-07-29T01:32:37;2.7;;;1.4;;
48891;SDS011;50130;52.150;5.236;2022-07-29T01:34:26;4.5;;;1.5;;
48891;SDS011;50130;52.150;5.236;2022-07-29T01:36:23;3.5;;;1.3;;
48891;SDS011;50130;52.150;5.236;2022-07-29T01:38:13;3.5;;;1.2;;
48891;SDS011;50130;52.150;5.236;2022-07-29T01:40:08;2.5;;;1.0;;
48891;SDS011;50130;52.150;5.236;2022-07-29T01:42:08;3.8;;;1.5;;
48891;SDS011;50130;52.150;5.236;2022-07-29T01:46:00;3.2;;;1.2;;
48891;SDS011;50130;52.150;5.236;2022-07-29T01:47:54;4.5;;;1.4;;
48891;SDS011;50130;52.150;5.236;2022-07-29T01:49:50;5.5;;;1.7;;
48891;SDS011;50130;52.150;5.236;2022-07-29T01:51:41;3.4;;;1.4;;
48891;SDS011;50130;52.150;5.236;2022-07-29T01:53:36;4.2;;;1.3;;
48891;SDS011;50130;52.150;5.236;2022-07-29T01:55:38;4.1;;;1.4;;
48891;SDS011;50130;52.150;5.236;2022-07-29T01:57:30;4.8;;;1.6;;
48891;SDS011;50130;52.150;5.236;2022-07-29T01:59:19;3.0;;;1.4;;
48891;SDS011;50130;52.150;5.236;2022-07-29T02:01:07;3.9;;;1.4;;
48891;SDS011;50130;52.150;5.236;2022-07-29T02:04:48;5.2;;;1.6;;
48891;SDS011;50130;52.150;5.236;2022-07-29T02:06:37;5.0;;;1.5;;
48891;SDS011;50130;52.150;5.236;2022-07-29T02:08:26;3.5;;;1.4;;
48891;SDS011;50130;52.150;5.236;2022-07-29T02:10:16;3.6;;;1.8;;
48891;SDS011;50130;52.150;5.236;2022-07-29T02:12:08;3.6;;;1.5;;
48891;SDS011;50130;52.150;5.236;2022-07-29T02:13:58;5.3;;;1.7;;
48891;SDS011;50130;52.150;5.236;2022-07-29T02:15:47;4.7;;;1.8;;
48891;SDS011;50130;52.150;5.236;2022-07-29T02:19:30;3.4;;;1.6;;
48891;SDS011;50130;52.150;5.236;2022-07-29T02:21:19;6.3;;;2.0;;
48891;SDS011;50130;52.150;5.236;2022-07-29T02:23:10;4.61;;;1.9;;
48891;SDS011;50130;52.150;5.236;2022-07-29T02:24:59;5.7;;;2.1;;
48891;SDS011;50130;52.150;5.236;2022-07-29T02:26:47;4.61;;;1.6;;
48891;SDS011;50130;52.150;5.236;2022-07-29T02:28:36;3.6;;;1.6;;
48891;SDS011;50130;52.150;5.236;2022-07-29T02:30:23;4.1;;;1.9;;
48891;SDS011;50130;52.150;5.236;2022-07-29T02:34:02;4.2;;;1.6;;
48891;SDS011;50130;52.150;5.236;2022-07-29T02:35:52;4.0;;;1.6;;
48891;SDS011;50130;52.150;5.236;2022-07-29T02:37:40;3.9;;;1.7;;
48891;SDS011;50130;52.150;5.236;2022-07-29T02:39:29;3.4;;;1.8;;
48891;SDS011;50130;52.150;5.236;2022-07-29T02:41:18;4.2;;;1.7;;
48891;SDS011;50130;52.150;5.236;2022-07-29T02:43:08;5.2;;;2.0;;
48891;SDS011;50130;52.150;5.236;2022-07-29T02:44:56;4.91;;;1.6;;
48891;SDS011;50130;52.150;5.236;2022-07-29T02:48:37;4.61;;;1.9;;
48891;SDS011;50130;52.150;5.236;2022-07-29T02:50:29;5.2;;;1.9;;
48891;SDS011;50130;52.150;5.236;2022-07-29T02:52:21;4.3;;;1.7;;
48891;SDS011;50130;52.150;5.236;2022-07-29T02:54:16;6.1;;;2.0;;
48891;SDS011;50130;52.150;5.236;2022-07-29T02:56:10;5.11;;;2.1;;
48891;SDS011;50130;52.150;5.236;2022-07-29T02:58:01;3.8;;;2.1;;
48891;SDS011;50130;52.150;5.236;2022-07-29T02:59:52;4.3;;;1.8;;
48891;SDS011;50130;52.150;5.236;2022-07-29T03:01:43;4.0;;;1.7;;
48891;SDS011;50130;52.150;5.236;2022-07-29T03:05:21;3.9;;;1.8;;
48891;SDS011;50130;52.150;5.236;2022-07-29T03:07:08;4.41;;;1.9;;
48891;SDS011;50130;52.150;5.236;2022-07-29T03:08:58;3.8;;;1.7;;
48891;SDS011;50130;52.150;5.236;2022-07-29T03:10:47;4.41;;;1.5;;
48891;SDS011;50130;52.150;5.236;2022-07-29T03:12:34;5.7;;;1.8;;
48891;SDS011;50130;52.150;5.236;2022-07-29T03:14:22;5.4;;;1.8;;
48891;SDS011;50130;52.150;5.236;2022-07-29T03:17:58;5.4;;;1.8;;
48891;SDS011;50130;52.150;5.236;2022-07-29T03:19:45;4.61;;;1.9;;
48891;SDS011;50130;52.150;5.236;2022-07-29T03:21:32;4.2;;;1.7;;
48891;SDS011;50130;52.150;5.236;2022-07-29T03:23:21;3.1;;;1.7;;
48891;SDS011;50130;52.150;5.236;2022-07-29T03:25:10;3.7;;;1.9;;
48891;SDS011;50130;52.150;5.236;2022-07-29T03:26:59;3.5;;;1.8;;
48891;SDS011;50130;52.150;5.236;2022-07-29T03:30:33;3.8;;;2.21;;
48891;SDS011;50130;52.150;5.236;2022-07-29T03:32:19;3.2;;;1.9;;
48891;SDS011;50130;52.150;5.236;2022-07-29T03:34:06;3.6;;;2.0;;
48891;SDS011;50130;52.150;5.236;2022-07-29T03:35:52;4.91;;;1.6;;
48891;SDS011;50130;52.150;5.236;2022-07-29T03:37:38;3.6;;;1.8;;
48891;SDS011;50130;52.150;5.236;2022-07-29T03:39:25;4.8;;;1.9;;
48891;SDS011;50130;52.150;5.236;2022-07-29T03:43:05;3.4;;;1.8;;
48891;SDS011;50130;52.150;5.236;2022-07-29T03:44:56;3.6;;;1.7;;
48891;SDS011;50130;52.150;5.236;2022-07-29T03:46:45;4.61;;;1.8;;
48891;SDS011;50130;52.150;5.236;2022-07-29T03:48:36;4.0;;;1.7;;
48891;SDS011;50130;52.150;5.236;2022-07-29T03:50:25;4.3;;;1.7;;
48891;SDS011;50130;52.150;5.236;2022-07-29T03:52:12;3.4;;;1.6;;
48891;SDS011;50130;52.150;5.236;2022-07-29T03:54:00;5.0;;;2.0;;
48891;SDS011;50130;52.150;5.236;2022-07-29T03:57:40;3.7;;;1.7;;
48891;SDS011;50130;52.150;5.236;2022-07-29T03:59:28;4.61;;;1.6;;
48891;SDS011;50130;52.150;5.236;2022-07-29T04:01:18;4.61;;;1.6;;
48891;SDS011;50130;52.150;5.236;2022-07-29T04:03:06;5.6;;;1.7;;
48891;SDS011;50130;52.150;5.236;2022-07-29T04:04:55;2.7;;;1.7;;
48891;SDS011;50130;52.150;5.236;2022-07-29T04:06:42;3.3;;;1.8;;
48891;SDS011;50130;52.150;5.236;2022-07-29T04:10:18;5.3;;;2.1;;
48891;SDS011;50130;52.150;5.236;2022-07-29T04:12:05;4.61;;;2.21;;
48891;SDS011;50130;52.150;5.236;2022-07-29T04:13:52;4.5;;;1.7;;
48891;SDS011;50130;52.150;5.236;2022-07-29T04:15:38;4.8;;;1.8;;
48891;SDS011;50130;52.150;5.236;2022-07-29T04:17:25;5.6;;;1.8;;
48891;SDS011;50130;52.150;5.236;2022-07-29T04:19:11;3.7;;;1.7;;
48891;SDS011;50130;52.150;5.236;2022-07-29T04:22:47;3.6;;;1.6;;
48891;SDS011;50130;52.150;5.236;2022-07-29T04:24:34;4.41;;;2.31;;
48891;SDS011;50130;52.150;5.236;2022-07-29T04:26:20;5.11;;;1.7;;
48891;SDS011;50130;52.150;5.236;2022-07-29T04:28:08;4.91;;;2.0;;
48891;SDS011;50130;52.150;5.236;2022-07-29T04:29:56;3.7;;;2.1;;
48891;SDS011;50130;52.150;5.236;2022-07-29T04:31:42;3.8;;;1.9;;
48891;SDS011;50130;52.150;5.236;2022-07-29T04:35:15;4.0;;;1.9;;
48891;SDS011;50130;52.150;5.236;2022-07-29T04:37:01;4.1;;;2.31;;
48891;SDS011;50130;52.150;5.236;2022-07-29T04:38:49;5.4;;;2.31;;
48891;SDS011;50130;52.150;5.236;2022-07-29T04:40:36;4.3;;;2.31;;
48891;SDS011;50130;52.150;5.236;2022-07-29T04:42:22;4.8;;;2.31;;
48891;SDS011;50130;52.150;5.236;2022-07-29T04:44:08;3.4;;;2.1;;
48891;SDS011;50130;52.150;5.236;2022-07-29T04:47:40;4.2;;;2.1;;
48891;SDS011;50130;52.150;5.236;2022-07-29T04:49:27;4.2;;;2.1;;
48891;SDS011;50130;52.150;5.236;2022-07-29T04:51:14;6.8;;;2.4;;
48891;SDS011;50130;52.150;5.236;2022-07-29T04:53:02;3.8;;;2.0;;
48891;SDS011;50130;52.150;5.236;2022-07-29T04:54:48;3.7;;;1.9;;
48891;SDS011;50130;52.150;5.236;2022-07-29T04:58:23;4.2;;;2.1;;
48891;SDS011;50130;52.150;5.236;2022-07-29T05:00:10;5.0;;;2.1;;
48891;SDS011;50130;52.150;5.236;2022-07-29T05:01:57;4.2;;;1.8;;
48891;SDS011;50130;52.150;5.236;2022-07-29T05:03:44;2.9;;;1.9;;
48891;SDS011;50130;52.150;5.236;2022-07-29T05:05:30;4.1;;;1.8;;
48891;SDS011;50130;52.150;5.236;2022-07-29T05:07:17;4.61;;;1.8;;
48891;SDS011;50130;52.150;5.236;2022-07-29T05:10:51;5.9;;;1.9;;
48891;SDS011;50130;52.150;5.236;2022-07-29T05:12:37;6.2;;;2.1;;
48891;SDS011;50130;52.150;5.236;2022-07-29T05:14:23;3.8;;;2.0;;
48891;SDS011;50130;52.150;5.236;2022-07-29T05:16:10;5.4;;;2.1;;
48891;SDS011;50130;52.150;5.236;2022-07-29T05:17:56;4.41;;;2.21;;
48891;SDS011;50130;52.150;5.236;2022-07-29T05:19:42;3.7;;;1.7;;
48891;SDS011;50130;52.150;5.236;2022-07-29T05:23:16;6.2;;;2.31;;
48891;SDS011;50130;52.150;5.236;2022-07-29T05:25:03;9.21;;;2.5;;
48891;SDS011;50130;52.150;5.236;2022-07-29T05:26:50;6.4;;;2.0;;
48891;SDS011;50130;52.150;5.236;2022-07-29T05:28:37;4.7;;;1.9;;
48891;SDS011;50130;52.150;5.236;2022-07-29T05:30:23;4.8;;;2.21;;
48891;SDS011;50130;52.150;5.236;2022-07-29T05:33:58;3.4;;;2.1;;
48891;SDS011;50130;52.150;5.236;2022-07-29T05:35:44;4.0;;;2.0;;
48891;SDS011;50130;52.150;5.236;2022-07-29T05:37:30;4.3;;;2.0;;
48891;SDS011;50130;52.150;5.236;2022-07-29T05:39:17;4.5;;;2.1;;
48891;SDS011;50130;52.150;5.236;2022-07-29T05:41:03;4.91;;;2.0;;
48891;SDS011;50130;52.150;5.236;2022-07-29T05:42:50;4.1;;;2.31;;
48891;SDS011;50130;52.150;5.236;2022-07-29T05:46:25;4.8;;;2.21;;
48891;SDS011;50130;52.150;5.236;2022-07-29T05:48:12;4.2;;;2.1;;
48891;SDS011;50130;52.150;5.236;2022-07-29T05:49:58;5.9;;;2.1;;
48891;SDS011;50130;52.150;5.236;2022-07-29T05:51:44;4.7;;;2.0;;
48891;SDS011;50130;52.150;5.236;2022-07-29T05:53:30;4.2;;;2.0;;
48891;SDS011;50130;52.150;5.236;2022-07-29T05:55:17;5.9;;;2.1;;
48891;SDS011;50130;52.150;5.236;2022-07-29T05:58:52;3.6;;;2.1;;
48891;SDS011;50130;52.150;5.236;2022-07-29T06:00:39;5.2;;;2.1;;
48891;SDS011;50130;52.150;5.236;2022-07-29T06:02:26;4.91;;;2.5;;
48891;SDS011;50130;52.150;5.236;2022-07-29T06:04:12;6.0;;;2.21;;
48891;SDS011;50130;52.150;5.236;2022-07-29T06:05:59;5.0;;;2.31;;
48891;SDS011;50130;52.150;5.236;2022-07-29T06:09:32;5.0;;;1.9;;
48891;SDS011;50130;52.150;5.236;2022-07-29T06:11:19;4.8;;;2.4;;
48891;SDS011;50130;52.150;5.236;2022-07-29T06:13:05;6.1;;;2.21;;
48891;SDS011;50130;52.150;5.236;2022-07-29T06:14:51;4.41;;;2.4;;
48891;SDS011;50130;52.150;5.236;2022-07-29T06:16:37;4.3;;;2.5;;
48891;SDS011;50130;52.150;5.236;2022-07-29T06:18:23;4.7;;;2.4;;
48891;SDS011;50130;52.150;5.236;2022-07-29T06:21:57;7.4;;;2.9;;
48891;SDS011;50130;52.150;5.236;2022-07-29T06:23:45;5.4;;;2.21;;
48891;SDS011;50130;52.150;5.236;2022-07-29T06:25:34;5.4;;;2.6;;
48891;SDS011;50130;52.150;5.236;2022-07-29T06:27:20;5.5;;;2.31;;
48891;SDS011;50130;52.150;5.236;2022-07-29T06:29:06;4.41;;;2.6;;
48891;SDS011;50130;52.150;5.236;2022-07-29T06:30:54;6.8;;;2.7;;
48891;SDS011;50130;52.150;5.236;2022-07-29T06:34:28;4.91;;;2.31;;
48891;SDS011;50130;52.150;5.236;2022-07-29T06:36:14;4.8;;;2.21;;
48891;SDS011;50130;52.150;5.236;2022-07-29T06:38:01;6.2;;;2.4;;
48891;SDS011;50130;52.150;5.236;2022-07-29T06:40:59;7.9;;;2.7;;
48891;SDS011;50130;52.150;5.236;2022-07-29T06:42:46;5.6;;;2.7;;
48891;SDS011;50130;52.150;5.236;2022-07-29T06:44:33;4.91;;;2.6;;
48891;SDS011;50130;52.150;5.236;2022-07-29T06:46:20;6.2;;;2.1;;
48891;SDS011;50130;52.150;5.236;2022-07-29T06:48:08;7.1;;;2.9;;
48891;SDS011;50130;52.150;5.236;2022-07-29T06:49:55;5.11;;;2.6;;
48891;SDS011;50130;52.150;5.236;2022-07-29T06:53:28;6.4;;;2.7;;
48891;SDS011;50130;52.150;5.236;2022-07-29T06:55:16;8.0;;;3.0;;
48891;SDS011;50130;52.150;5.236;2022-07-29T06:57:02;5.11;;;2.31;;
48891;SDS011;50130;52.150;5.236;2022-07-29T06:58:48;4.2;;;2.21;;
48891;SDS011;50130;52.150;5.236;2022-07-29T07:00:34;6.1;;;2.21;;
48891;SDS011;50130;52.150;5.236;2022-07-29T07:02:21;4.3;;;2.4;;
48891;SDS011;50130;52.150;5.236;2022-07-29T07:05:56;4.2;;;2.31;;
48891;SDS011;50130;52.150;5.236;2022-07-29T07:07:43;3.5;;;2.21;;
48891;SDS011;50130;52.150;5.236;2022-07-29T07:09:29;5.9;;;2.31;;
48891;SDS011;50130;52.150;5.236;2022-07-29T07:11:15;4.7;;;2.6;;
48891;SDS011;50130;52.150;5.236;2022-07-29T07:13:01;4.8;;;2.5;;
48891;SDS011;50130;52.150;5.236;2022-07-29T07:14:49;5.5;;;2.31;;
48891;SDS011;50130;52.150;5.236;2022-07-29T07:18:22;6.0;;;2.6;;
48891;SDS011;50130;52.150;5.236;2022-07-29T07:20:08;4.8;;;2.21;;
48891;SDS011;50130;52.150;5.236;2022-07-29T07:21:55;5.7;;;2.4;;
48891;SDS011;50130;52.150;5.236;2022-07-29T07:23:42;6.3;;;2.6;;
48891;SDS011;50130;52.150;5.236;2022-07-29T07:25:28;7.3;;;2.5;;
48891;SDS011;50130;52.150;5.236;2022-07-29T07:29:00;7.2;;;2.7;;
48891;SDS011;50130;52.150;5.236;2022-07-29T07:30:47;8.2;;;2.9;;
48891;SDS011;50130;52.150;5.236;2022-07-29T07:32:34;7.4;;;2.7;;
48891;SDS011;50130;52.150;5.236;2022-07-29T07:34:21;5.9;;;2.6;;
48891;SDS011;50130;52.150;5.236;2022-07-29T07:36:07;8.0;;;3.3;;
48891;SDS011;50130;52.150;5.236;2022-07-29T07:37:53;5.9;;;3.1;;
48891;SDS011;50130;52.150;5.236;2022-07-29T07:41:27;5.9;;;2.6;;
48891;SDS011;50130;52.150;5.236;2022-07-29T07:43:14;5.2;;;2.8;;
48891;SDS011;50130;52.150;5.236;2022-07-29T07:45:00;6.6;;;2.7;;
48891;SDS011;50130;52.150;5.236;2022-07-29T07:46:46;6.1;;;3.0;;
48891;SDS011;50130;52.150;5.236;2022-07-29T07:48:34;5.4;;;3.1;;
48891;SDS011;50130;52.150;5.236;2022-07-29T07:50:21;3.6;;;2.6;;
48891;SDS011;50130;52.150;5.236;2022-07-29T07:53:54;5.8;;;2.9;;
48891;SDS011;50130;52.150;5.236;2022-07-29T07:55:40;4.2;;;2.8;;
48891;SDS011;50130;52.150;5.236;2022-07-29T07:57:29;6.7;;;2.9;;
48891;SDS011;50130;52.150;5.236;2022-07-29T07:59:15;3.6;;;2.5;;
48891;SDS011;50130;52.150;5.236;2022-07-29T08:01:02;8.0;;;3.0;;
48891;SDS011;50130;52.150;5.236;2022-07-29T08:02:49;6.3;;;2.7;;
48891;SDS011;50130;52.150;5.236;2022-07-29T08:06:25;3.8;;;2.8;;
48891;SDS011;50130;52.150;5.236;2022-07-29T08:08:11;5.4;;;2.9;;
48891;SDS011;50130;52.150;5.236;2022-07-29T08:09:57;5.5;;;2.7;;
48891;SDS011;50130;52.150;5.236;2022-07-29T08:11:43;5.4;;;2.8;;
48891;SDS011;50130;52.150;5.236;2022-07-29T08:13:30;6.5;;;3.1;;
48891;SDS011;50130;52.150;5.236;2022-07-29T08:17:02;6.5;;;2.6;;
48891;SDS011;50130;52.150;5.236;2022-07-29T08:18:49;4.41;;;2.6;;
48891;SDS011;50130;52.150;5.236;2022-07-29T08:20:35;6.5;;;3.2;;
48891;SDS011;50130;52.150;5.236;2022-07-29T08:22:23;5.2;;;2.5;;
48891;SDS011;50130;52.150;5.236;2022-07-29T08:25:13;5.7;;;2.7;;
48891;SDS011;50130;52.150;5.236;2022-07-29T08:26:59;6.5;;;2.7;;
48891;SDS011;50130;52.150;5.236;2022-07-29T08:28:46;5.4;;;2.8;;
48891;SDS011;50130;52.150;5.236;2022-07-29T08:30:33;8.31;;;2.7;;
48891;SDS011;50130;52.150;5.236;2022-07-29T08:32:20;5.2;;;2.7;;
48891;SDS011;50130;52.150;5.236;2022-07-29T08:35:55;4.41;;;2.5;;
48891;SDS011;50130;52.150;5.236;2022-07-29T08:37:42;7.8;;;2.9;;
48891;SDS011;50130;52.150;5.236;2022-07-29T08:39:28;7.8;;;2.9;;
48891;SDS011;50130;52.150;5.236;2022-07-29T08:41:15;8.71;;;2.6;;
48891;SDS011;50130;52.150;5.236;2022-07-29T08:43:04;6.5;;;3.0;;
48891;SDS011;50130;52.150;5.236;2022-07-29T08:44:53;6.3;;;2.6;;
48891;SDS011;50130;52.150;5.236;2022-07-29T08:48:28;7.3;;;3.0;;
48891;SDS011;50130;52.150;5.236;2022-07-29T08:50:15;5.11;;;2.4;;
48891;SDS011;50130;52.150;5.236;2022-07-29T08:52:02;3.3;;;2.4;;
48891;SDS011;50130;52.150;5.236;2022-07-29T08:53:49;6.8;;;2.4;;
48891;SDS011;50130;52.150;5.236;2022-07-29T08:55:38;6.1;;;2.31;;
48891;SDS011;50130;52.150;5.236;2022-07-29T08:57:26;3.5;;;2.31;;
48891;SDS011;50130;52.150;5.236;2022-07-29T09:01:01;3.7;;;2.1;;
48891;SDS011;50130;52.150;5.236;2022-07-29T09:02:50;5.3;;;2.21;;
48891;SDS011;50130;52.150;5.236;2022-07-29T09:04:42;6.3;;;2.5;;
48891;SDS011;50130;52.150;5.236;2022-07-29T09:06:31;4.3;;;2.1;;
48891;SDS011;50130;52.150;5.236;2022-07-29T09:08:23;3.9;;;1.9;;
48891;SDS011;50130;52.150;5.236;2022-07-29T09:10:10;4.3;;;2.31;;
48891;SDS011;50130;52.150;5.236;2022-07-29T09:11:56;8.6;;;2.7;;
48891;SDS011;50130;52.150;5.236;2022-07-29T09:15:32;5.0;;;2.31;;
48891;SDS011;50130;52.150;5.236;2022-07-29T09:17:34;6.6;;;2.4;;
48891;SDS011;50130;52.150;5.236;2022-07-29T09:19:26;5.3;;;2.5;;
48891;SDS011;50130;52.150;5.236;2022-07-29T09:22:28;3.5;;;1.9;;
48891;SDS011;50130;52.150;5.236;2022-07-29T09:24:15;5.6;;;2.0;;
48891;SDS011;50130;52.150;5.236;2022-07-29T09:26:04;4.41;;;2.31;;
48891;SDS011;50130;52.150;5.236;2022-07-29T09:27:51;5.0;;;2.31;;
48891;SDS011;50130;52.150;5.236;2022-07-29T09:29:38;7.0;;;2.21;;
48891;SDS011;50130;52.150;5.236;2022-07-29T09:31:32;5.5;;;2.21;;
48891;SDS011;50130;52.150;5.236;2022-07-29T09:33:20;5.3;;;2.21;;
48891;SDS011;50130;52.150;5.236;2022-07-29T09:35:16;4.91;;;2.21;;
48891;SDS011;50130;52.150;5.236;2022-07-29T09:37:05;6.9;;;2.1;;
48891;SDS011;50130;52.150;5.236;2022-07-29T09:40:43;4.41;;;2.1;;
48891;SDS011;50130;52.150;5.236;2022-07-29T09:42:43;8.0;;;2.31;;
48891;SDS011;50130;52.150;5.236;2022-07-29T09:44:45;3.1;;;1.8;;
48891;SDS011;50130;52.150;5.236;2022-07-29T09:46:34;6.3;;;2.4;;
48891;SDS011;50130;52.150;5.236;2022-07-29T09:48:22;5.0;;;1.9;;
48891;SDS011;50130;52.150;5.236;2022-07-29T09:50:10;5.2;;;2.1;;
48891;SDS011;50130;52.150;5.236;2022-07-29T09:51:59;5.6;;;1.9;;
48891;SDS011;50130;52.150;5.236;2022-07-29T09:53:50;5.0;;;2.0;;
48891;SDS011;50130;52.150;5.236;2022-07-29T09:57:39;4.8;;;2.6;;
48891;SDS011;50130;52.150;5.236;2022-07-29T09:59:26;5.5;;;2.0;;
48891;SDS011;50130;52.150;5.236;2022-07-29T10:01:12;6.8;;;2.4;;
48891;SDS011;50130;52.150;5.236;2022-07-29T10:03:00;5.3;;;1.9;;
48891;SDS011;50130;52.150;5.236;2022-07-29T10:04:47;6.5;;;2.1;;
48891;SDS011;50130;52.150;5.236;2022-07-29T10:06:34;4.8;;;1.7;;
48891;SDS011;50130;52.150;5.236;2022-07-29T10:08:41;6.9;;;2.31;;
48891;SDS011;50130;52.150;5.236;2022-07-29T10:10:28;7.9;;;2.21;;
48891;SDS011;50130;52.150;5.236;2022-07-29T10:14:04;5.7;;;1.6;;
48891;SDS011;50130;52.150;5.236;2022-07-29T10:15:51;5.2;;;1.9;;
48891;SDS011;50130;52.150;5.236;2022-07-29T10:17:39;4.41;;;1.5;;
48891;SDS011;50130;52.150;5.236;2022-07-29T10:19:27;6.9;;;2.21;;
48891;SDS011;50130;52.150;5.236;2022-07-29T10:21:15;7.2;;;1.8;;
48891;SDS011;50130;52.150;5.236;2022-07-29T10:23:02;6.8;;;2.1;;
48891;SDS011;50130;52.150;5.236;2022-07-29T10:26:40;5.5;;;2.1;;
48891;SDS011;50130;52.150;5.236;2022-07-29T10:28:29;4.41;;;1.9;;
48891;SDS011;50130;52.150;5.236;2022-07-29T10:30:16;6.4;;;1.9;;
48891;SDS011;50130;52.150;5.236;2022-07-29T10:32:08;8.81;;;2.1;;
48891;SDS011;50130;52.150;5.236;2022-07-29T10:34:07;5.4;;;2.0;;
48891;SDS011;50130;52.150;5.236;2022-07-29T10:36:07;4.5;;;1.3;;
48891;SDS011;50130;52.150;5.236;2022-07-29T10:38:15;7.2;;;2.0;;
48891;SDS011;50130;52.150;5.236;2022-07-29T10:41:50;3.3;;;1.6;;
48891;SDS011;50130;52.150;5.236;2022-07-29T10:43:57;4.5;;;1.4;;
48891;SDS011;50130;52.150;5.236;2022-07-29T10:47:36;6.7;;;1.7;;
48891;SDS011;50130;52.150;5.236;2022-07-29T10:49:22;3.9;;;2.0;;
48891;SDS011;50130;52.150;5.236;2022-07-29T10:51:10;5.0;;;2.0;;
48891;SDS011;50130;52.150;5.236;2022-07-29T10:52:57;5.2;;;2.1;;
48891;SDS011;50130;52.150;5.236;2022-07-29T10:54:46;6.2;;;2.1;;
48891;SDS011;50130;52.150;5.236;2022-07-29T10:56:36;7.6;;;2.6;;
48891;SDS011;50130;52.150;5.236;2022-07-29T11:00:29;7.6;;;2.4;;
48891;SDS011;50130;52.150;5.236;2022-07-29T11:02:50;6.4;;;1.9;;
48891;SDS011;50130;52.150;5.236;2022-07-29T11:05:08;3.6;;;2.0;;
48891;SDS011;50130;52.150;5.236;2022-07-29T11:07:08;7.1;;;2.31;;
48891;SDS011;50130;52.150;5.236;2022-07-29T11:13:55;7.2;;;2.31;;
48891;SDS011;50130;52.150;5.236;2022-07-29T11:15:57;8.4;;;2.4;;
48891;SDS011;50130;52.150;5.236;2022-07-29T11:18:03;6.0;;;1.6;;
48891;SDS011;50130;52.150;5.236;2022-07-29T11:19:51;6.8;;;1.9;;
48891;SDS011;50130;52.150;5.236;2022-07-29T11:22:30;5.0;;;1.7;;
48891;SDS011;50130;52.150;5.236;2022-07-29T11:24:21;6.3;;;1.7;;
48891;SDS011;50130;52.150;5.236;2022-07-29T11:26:13;5.9;;;1.5;;
48891;SDS011;50130;52.150;5.236;2022-07-29T11:28:08;4.1;;;1.5;;
48891;SDS011;50130;52.150;5.236;2022-07-29T11:30:04;7.6;;;1.6;;
48891;SDS011;50130;52.150;5.236;2022-07-29T11:33:56;5.9;;;1.5;;
48891;SDS011;50130;52.150;5.236;2022-07-29T11:35:43;4.2;;;1.5;;
48891;SDS011;50130;52.150;5.236;2022-07-29T11:38:22;6.0;;;1.6;;
48891;SDS011;50130;52.150;5.236;2022-07-29T11:40:13;5.0;;;1.6;;
48891;SDS011;50130;52.150;5.236;2022-07-29T11:42:36;7.9;;;1.5;;
48891;SDS011;50130;52.150;5.236;2022-07-29T11:44:55;7.2;;;1.5;;
48891;SDS011;50130;52.150;5.236;2022-07-29T11:46:43;5.0;;;1.7;;
48891;SDS011;50130;52.150;5.236;2022-07-29T11:50:30;5.0;;;1.4;;
48891;SDS011;50130;52.150;5.236;2022-07-29T11:52:18;6.6;;;1.6;;
48891;SDS011;50130;52.150;5.236;2022-07-29T11:54:06;3.1;;;1.3;;
48891;SDS011;50130;52.150;5.236;2022-07-29T11:56:00;22.3;;;2.6;;
48891;SDS011;50130;52.150;5.236;2022-07-29T11:57:47;6.8;;;1.6;;
48891;SDS011;50130;52.150;5.236;2022-07-29T11:59:38;7.7;;;1.6;;
48891;SDS011;50130;52.150;5.236;2022-07-29T12:01:27;6.1;;;1.8;;
48891;SDS011;50130;52.150;5.236;2022-07-29T12:05:10;7.2;;;1.9;;
48891;SDS011;50130;52.150;5.236;2022-07-29T12:06:57;7.0;;;1.8;;
48891;SDS011;50130;52.150;5.236;2022-07-29T12:08:44;8.1;;;1.8;;
48891;SDS011;50130;52.150;5.236;2022-07-29T12:10:30;7.6;;;2.31;;
48891;SDS011;50130;52.150;5.236;2022-07-29T12:12:18;6.9;;;2.4;;
48891;SDS011;50130;52.150;5.236;2022-07-29T12:14:05;6.9;;;2.4;;
48891;SDS011;50130;52.150;5.236;2022-07-29T12:17:39;4.7;;;2.31;;
48891;SDS011;50130;52.150;5.236;2022-07-29T12:19:25;5.11;;;2.21;;
48891;SDS011;50130;52.150;5.236;2022-07-29T12:21:12;6.5;;;2.0;;
48891;SDS011;50130;52.150;5.236;2022-07-29T12:22:58;6.5;;;2.0;;
48891;SDS011;50130;52.150;5.236;2022-07-29T12:24:52;4.91;;;2.1;;
48891;SDS011;50130;52.150;5.236;2022-07-29T12:26:48;7.4;;;2.31;;
48891;SDS011;50130;52.150;5.236;2022-07-29T12:28:36;6.6;;;2.1;;
48891;SDS011;50130;52.150;5.236;2022-07-29T12:32:21;7.8;;;2.7;;
48891;SDS011;50130;52.150;5.236;2022-07-29T12:34:09;7.9;;;1.9;;
48891;SDS011;50130;52.150;5.236;2022-07-29T12:35:57;7.9;;;2.5;;
48891;SDS011;50130;52.150;5.236;2022-07-29T12:37:46;9.1;;;2.31;;
48891;SDS011;50130;52.150;5.236;2022-07-29T12:39:34;8.0;;;3.0;;
48891;SDS011;50130;52.150;5.236;2022-07-29T12:41:21;9.4;;;2.9;;
48891;SDS011;50130;52.150;5.236;2022-07-29T12:43:10;8.4;;;3.3;;
48891;SDS011;50130;52.150;5.236;2022-07-29T12:47:00;6.2;;;2.8;;
48891;SDS011;50130;52.150;5.236;2022-07-29T12:48:49;6.2;;;2.6;;
48891;SDS011;50130;52.150;5.236;2022-07-29T12:50:51;9.21;;;2.5;;
48891;SDS011;50130;52.150;5.236;2022-07-29T12:52:42;5.8;;;2.5;;
48891;SDS011;50130;52.150;5.236;2022-07-29T12:54:30;5.2;;;2.5;;
48891;SDS011;50130;52.150;5.236;2022-07-29T12:56:16;7.6;;;2.5;;
48891;SDS011;50130;52.150;5.236;2022-07-29T12:58:03;8.5;;;2.8;;
48891;SDS011;50130;52.150;5.236;2022-07-29T13:01:49;6.4;;;2.8;;
48891;SDS011;50130;52.150;5.236;2022-07-29T13:03:46;7.1;;;2.31;;
48891;SDS011;50130;52.150;5.236;2022-07-29T13:05:40;7.4;;;2.0;;
48891;SDS011;50130;52.150;5.236;2022-07-29T13:07:30;8.31;;;2.4;;
48891;SDS011;50130;52.150;5.236;2022-07-29T13:09:19;7.9;;;2.1;;
48891;SDS011;50130;52.150;5.236;2022-07-29T13:11:06;7.4;;;2.1;;
48891;SDS011;50130;52.150;5.236;2022-07-29T13:13:24;6.2;;;2.21;;